createdAt,value
2022-07-30T00:00:27.549Z,102197.50
2022-07-30T00:02:55.486Z,102193.91
2022-07-30T00:05:23.471Z,102183.34
2022-07-30T00:07:51.543Z,102183.66
2022-07-30T00:10:20.714Z,102173.97
2022-07-30T00:12:48.660Z,102176.81
2022-07-30T00:15:18.134Z,102172.59
2022-07-30T00:17:47.089Z,102172.50
2022-07-30T00:20:17.347Z,102180.19
2022-07-30T00:22:46.798Z,102183.78
2022-07-30T00:25:14.745Z,102176.59
2022-07-30T00:27:43.131Z,102181.88
2022-07-30T00:30:12.018Z,102181.03
2022-07-30T00:32:41.479Z,102168.47
2022-07-30T00:35:10.332Z,102166.91
2022-07-30T00:37:38.232Z,102177.66
2022-07-30T00:40:07.818Z,102175.13
2022-07-30T00:42:40.531Z,102179.56
2022-07-30T00:45:09.496Z,102171.75
2022-07-30T00:47:38.050Z,102174.38
2022-07-30T00:50:09.927Z,102174.69
2022-07-30T00:52:39.128Z,102172.91
2022-07-30T00:55:08.745Z,102168.47
2022-07-30T00:57:36.776Z,102171.41
2022-07-30T01:00:07.704Z,102164.75
2022-07-30T01:02:35.704Z,102170.91
2022-07-30T01:05:03.722Z,102169.84
2022-07-30T01:07:33.174Z,102173.31
2022-07-30T01:10:01.114Z,102169.72
2022-07-30T01:12:29.605Z,102165.31
2022-07-30T01:14:58.916Z,102166.03
2022-07-30T01:17:27.004Z,102160.84
2022-07-30T01:20:00.279Z,102157.41
2022-07-30T01:22:43.817Z,102164.34
2022-07-30T01:25:18.460Z,102163.28
2022-07-30T01:27:53.283Z,102163.28
2022-07-30T01:30:24.886Z,102164.13
2022-07-30T01:32:55.634Z,102158.44
2022-07-30T01:35:25.766Z,102156.19
2022-07-30T01:37:55.751Z,102147.69
2022-07-30T01:40:26.336Z,102145.25
2022-07-30T01:42:58.480Z,102141.75
2022-07-30T01:45:29.264Z,102148.69
2022-07-30T01:48:01.354Z,102147.97
2022-07-30T01:50:31.870Z,102141.53
2022-07-30T01:53:00.324Z,102146.19
2022-07-30T01:55:31.830Z,102133.84
2022-07-30T01:58:02.258Z,102139.13
2022-07-30T02:00:31.637Z,102144.59
2022-07-30T02:02:59.794Z,102144.50
2022-07-30T02:05:31.697Z,102140.69
2022-07-30T02:08:06.748Z,102140.78
2022-07-30T02:10:37.632Z,102126.22
2022-07-30T02:13:08.861Z,102134.16
2022-07-30T02:15:42.692Z,102131.72
2022-07-30T02:18:16.341Z,102121.28
2022-07-30T02:20:49.561Z,102121.28
2022-07-30T02:23:19.614Z,102131.72
2022-07-30T02:25:51.403Z,102120.13
2022-07-30T02:28:23.635Z,102123.38
2022-07-30T02:30:54.619Z,102127.75
2022-07-30T02:33:26.546Z,102130.47
2022-07-30T02:35:56.294Z,102133.22
2022-07-30T02:38:25.497Z,102131.00
2022-07-30T02:40:55.499Z,102131.00
2022-07-30T02:43:26.797Z,102130.47
2022-07-30T02:45:55.559Z,102129.91
2022-07-30T02:48:34.602Z,102134.34
2022-07-30T02:51:05.557Z,102133.50
2022-07-30T02:53:34.091Z,102128.88
2022-07-30T02:56:03.132Z,102126.84
2022-07-30T02:58:33.670Z,102127.72
2022-07-30T03:01:03.238Z,102131.72
2022-07-30T03:03:32.834Z,102131.50
2022-07-30T03:06:02.415Z,102133.09
2022-07-30T03:08:33.148Z,102133.00
2022-07-30T03:11:01.771Z,102135.41
2022-07-30T03:13:29.960Z,102131.72
2022-07-30T03:16:00.346Z,102128.38
2022-07-30T03:18:34.092Z,102118.75
2022-07-30T03:21:03.048Z,102121.59
2022-07-30T03:23:36.671Z,102118.13
2022-07-30T03:26:06.696Z,102116.50
2022-07-30T03:28:39.186Z,102119.91
2022-07-30T03:31:10.616Z,102128.47
2022-07-30T03:33:41.211Z,102119.59
2022-07-30T03:36:10.763Z,102127.41
2022-07-30T03:38:40.486Z,102128.38
2022-07-30T03:41:09.404Z,102134.47
2022-07-30T03:43:38.963Z,102137.19
2022-07-30T03:46:10.833Z,102133.84
2022-07-30T03:48:40.851Z,102129.38
2022-07-30T03:51:10.435Z,102127.41
2022-07-30T03:53:41.112Z,102137.84
2022-07-30T03:56:09.726Z,102144.81
2022-07-30T03:58:39.550Z,102141.97
2022-07-30T04:01:08.905Z,102132.25
2022-07-30T04:03:36.910Z,102123.59
2022-07-30T04:06:05.099Z,102115.91
2022-07-30T04:08:33.016Z,102120.13
2022-07-30T04:11:00.952Z,102117.19
2022-07-30T04:13:28.865Z,102125.09
2022-07-30T04:16:38.277Z,102130.13
2022-07-30T04:18:55.915Z,102118.56
2022-07-30T04:21:27.010Z,102118.44
2022-07-30T04:24:02.316Z,102115.19
2022-07-30T04:26:33.977Z,102107.34
2022-07-30T04:29:03.004Z,102105.75
2022-07-30T04:31:37.517Z,102106.25
2022-07-30T04:34:13.784Z,102108.91
2022-07-30T04:36:42.556Z,102094.78
2022-07-30T04:39:11.170Z,102091.72
2022-07-30T04:41:49.595Z,102101.13
2022-07-30T04:44:18.693Z,102100.91
2022-07-30T04:46:46.808Z,102097.94
2022-07-30T04:49:18.979Z,102105.31
2022-07-30T04:51:47.932Z,102094.31
2022-07-30T04:54:17.143Z,102094.69
2022-07-30T04:56:53.102Z,102097.00
2022-07-30T04:59:25.037Z,102095.09
2022-07-30T05:01:55.362Z,102097.31
2022-07-30T05:04:26.461Z,102102.25
2022-07-30T05:06:55.451Z,102091.56
2022-07-30T05:09:24.125Z,102089.41
2022-07-30T05:11:53.110Z,102085.63
2022-07-30T05:14:21.327Z,102082.41
2022-07-30T05:16:49.244Z,102077.50
2022-07-30T05:19:17.827Z,102076.31
2022-07-30T05:21:47.451Z,102074.28
2022-07-30T05:24:16.039Z,102065.41
2022-07-30T05:26:43.973Z,102072.16
2022-07-30T05:29:14.923Z,102064.09
2022-07-30T05:31:48.510Z,102060.38
2022-07-30T05:34:16.588Z,102067.97
2022-07-30T05:36:46.180Z,102065.81
2022-07-30T05:39:14.243Z,102065.50
2022-07-30T05:41:42.205Z,102069.72
2022-07-30T05:44:10.232Z,102066.72
2022-07-30T05:46:38.177Z,102070.81
2022-07-30T05:49:06.526Z,102074.34
2022-07-30T05:51:34.659Z,102078.31
2022-07-30T05:54:04.248Z,102080.50
2022-07-30T05:56:32.192Z,102079.16
2022-07-30T05:59:00.112Z,102077.03
2022-07-30T06:01:28.188Z,102074.84
2022-07-30T06:03:56.100Z,102078.09
2022-07-30T06:06:24.039Z,102070.41
2022-07-30T06:08:52.260Z,102076.66
2022-07-30T06:11:21.627Z,102070.41
2022-07-30T06:13:49.514Z,102069.81
2022-07-30T06:16:17.417Z,102072.69
2022-07-30T06:18:45.411Z,102074.31
2022-07-30T06:21:13.272Z,102074.16
2022-07-30T06:23:41.211Z,102074.28
2022-07-30T06:26:09.153Z,102077.16
2022-07-30T06:28:39.261Z,102065.50
2022-07-30T06:31:07.557Z,102063.94
2022-07-30T06:33:35.793Z,102059.41
2022-07-30T06:36:03.714Z,102056.91
2022-07-30T06:38:31.773Z,102054.63
2022-07-30T06:41:02.978Z,102055.59
2022-07-30T06:43:32.811Z,102048.44
2022-07-30T06:46:02.097Z,102052.09
2022-07-30T06:48:31.549Z,102048.09
2022-07-30T06:50:59.666Z,102045.66
2022-07-30T06:53:27.614Z,102036.69
2022-07-30T06:55:58.353Z,102040.63
2022-07-30T06:58:29.307Z,102043.84
2022-07-30T07:00:57.405Z,102045.03
2022-07-30T07:03:40.317Z,102049.38
2022-07-30T07:06:08.718Z,102047.44
2022-07-30T07:08:37.300Z,102045.81
2022-07-30T07:11:05.589Z,102048.31
2022-07-30T07:13:33.504Z,102038.91
2022-07-30T07:16:01.480Z,102034.81
2022-07-30T07:18:30.816Z,102037.84
2022-07-30T07:20:58.956Z,102034.59
2022-07-30T07:23:39.825Z,102038.50
2022-07-30T07:26:11.283Z,102039.19
2022-07-30T07:28:40.199Z,102040.88
2022-07-30T07:31:08.330Z,102041.41
2022-07-30T07:33:37.932Z,102030.28
2022-07-30T07:36:06.424Z,102033.13
2022-07-30T07:38:34.467Z,102031.41
2022-07-30T07:41:02.403Z,102029.66
2022-07-30T07:43:30.380Z,102030.00
2022-07-30T07:45:58.728Z,102026.66
2022-07-30T07:48:26.674Z,102013.69
2022-07-30T07:50:59.950Z,102023.41
2022-07-30T07:53:28.603Z,102018.75
2022-07-30T07:55:57.255Z,102021.28
2022-07-30T07:58:26.527Z,102016.34
2022-07-30T08:00:55.190Z,102014.22
2022-07-30T08:03:23.230Z,102022.38
2022-07-30T08:05:55.878Z,102016.50
2022-07-30T08:08:36.693Z,102012.16
2022-07-30T08:11:05.757Z,102009.50
2022-07-30T08:13:49.106Z,102018.97
2022-07-30T08:16:20.377Z,102005.03
2022-07-30T08:18:48.496Z,102014.88
2022-07-30T08:21:16.439Z,102011.16
2022-07-30T08:23:45.807Z,102013.25
2022-07-30T08:26:13.764Z,102005.38
2022-07-30T08:28:43.163Z,102004.94
2022-07-30T08:31:11.290Z,101997.63
2022-07-30T08:33:39.239Z,101999.84
2022-07-30T08:36:09.726Z,101998.53
2022-07-30T08:38:38.854Z,102001.72
2022-07-30T08:41:08.452Z,102002.09
2022-07-30T08:43:37.675Z,101996.25
2022-07-30T08:46:10.027Z,101990.06
2022-07-30T08:48:38.850Z,101993.06
2022-07-30T08:51:07.150Z,101986.00
2022-07-30T08:53:35.607Z,101988.81
2022-07-30T08:56:04.566Z,101991.28
2022-07-30T08:58:35.496Z,101987.66
2022-07-30T09:01:03.548Z,101988.97
2022-07-30T09:03:32.713Z,101990.78
2022-07-30T09:06:02.347Z,101988.75
2022-07-30T09:08:30.356Z,101989.97
2022-07-30T09:10:58.748Z,101976.66
2022-07-30T09:13:28.311Z,101975.00
2022-07-30T09:15:58.411Z,101976.19
2022-07-30T09:18:31.550Z,101975.31
2022-07-30T09:21:01.379Z,101982.53
2022-07-30T09:23:29.990Z,101969.56
2022-07-30T09:26:00.956Z,101969.25
2022-07-30T09:28:32.257Z,101964.22
2022-07-30T09:31:01.819Z,101960.00
2022-07-30T09:33:35.065Z,101964.94
2022-07-30T09:36:04.446Z,101960.84
2022-07-30T09:38:43.797Z,101954.81
2022-07-30T09:41:29.100Z,101961.13
2022-07-30T09:44:02.807Z,101956.09
2022-07-30T09:46:45.036Z,101952.84
2022-07-30T09:49:17.655Z,101954.59
2022-07-30T09:51:54.330Z,101949.25
2022-07-30T09:54:25.375Z,101946.41
2022-07-30T09:57:22.866Z,101945.25
2022-07-30T09:59:56.598Z,101941.38
2022-07-30T10:02:32.884Z,101945.38
2022-07-30T10:05:15.406Z,101936.69
2022-07-30T10:07:52.286Z,101945.31
2022-07-30T10:10:25.320Z,101936.78
2022-07-30T10:12:58.035Z,101939.28
2022-07-30T10:15:29.601Z,101935.16
2022-07-30T10:18:00.606Z,101935.81
2022-07-30T10:20:29.470Z,101933.22
2022-07-30T10:22:58.341Z,101937.97
2022-07-30T10:25:28.399Z,101930.66
2022-07-30T10:27:57.286Z,101931.34
2022-07-30T10:30:29.413Z,101934.69
2022-07-30T10:33:00.322Z,101926.03
2022-07-30T10:35:35.042Z,101934.34
2022-07-30T10:38:13.927Z,101923.66
2022-07-30T10:40:48.895Z,101932.53
2022-07-30T10:44:15.841Z,101925.16
2022-07-30T10:46:52.144Z,101934.69
2022-07-30T10:49:21.756Z,101920.69
2022-07-30T10:51:52.396Z,101922.22
2022-07-30T10:54:44.680Z,101917.84
2022-07-30T10:57:23.017Z,101917.19
2022-07-30T11:00:15.355Z,101917.69
2022-07-30T11:03:17.137Z,101913.41
2022-07-30T11:05:49.819Z,101911.22
2022-07-30T11:08:48.599Z,101915.41
2022-07-30T11:12:02.200Z,101907.72
2022-07-30T11:15:07.269Z,101910.41
2022-07-30T11:18:12.510Z,101906.72
2022-07-30T11:20:43.129Z,101905.59
2022-07-30T11:23:45.946Z,101903.56
2022-07-30T11:26:47.343Z,101894.09
2022-07-30T11:29:50.571Z,101897.09
2022-07-30T11:32:32.066Z,101883.19
2022-07-30T11:35:23.031Z,101881.16
2022-07-30T11:38:19.104Z,101880.00
2022-07-30T11:41:12.940Z,101873.47
2022-07-30T11:43:41.791Z,101876.63
2022-07-30T11:46:11.260Z,101872.59
2022-07-30T11:48:43.124Z,101873.59
2022-07-30T11:51:11.494Z,101870.06
2022-07-30T11:53:39.429Z,101867.78
2022-07-30T11:56:09.495Z,101871.94
2022-07-30T11:58:44.796Z,101874.97
2022-07-30T12:01:15.660Z,101877.31
2022-07-30T12:03:45.717Z,101866.31
2022-07-30T12:06:18.186Z,101863.31
2022-07-30T12:08:48.508Z,101861.28
2022-07-30T12:11:16.653Z,101862.13
2022-07-30T12:13:57.170Z,101864.66
2022-07-30T12:16:24.846Z,101860.97
2022-07-30T12:18:52.902Z,101863.97
2022-07-30T12:21:21.334Z,101857.31
2022-07-30T12:23:56.562Z,101861.66
2022-07-30T12:26:26.980Z,101853.78
2022-07-30T12:28:57.819Z,101851.81
2022-07-30T12:31:26.107Z,101847.59
2022-07-30T12:33:58.274Z,101856.97
2022-07-30T12:36:30.933Z,101848.09
2022-07-30T12:38:59.620Z,101845.25
2022-07-30T12:41:43.025Z,101846.22
2022-07-30T12:44:12.596Z,101844.38
2022-07-30T12:46:42.245Z,101850.72
2022-07-30T12:49:21.932Z,101847.84
2022-07-30T12:51:52.011Z,101847.44
2022-07-30T12:54:21.165Z,101848.66
2022-07-30T12:57:01.007Z,101855.28
2022-07-30T12:59:31.779Z,101847.06
2022-07-30T13:02:01.068Z,101848.03
2022-07-30T13:04:29.209Z,101842.53
2022-07-30T13:07:08.072Z,101841.72
2022-07-30T13:09:36.332Z,101845.38
2022-07-30T13:12:04.808Z,101837.66
2022-07-30T13:14:34.209Z,101833.50
2022-07-30T13:17:04.019Z,101837.34
2022-07-30T13:19:32.494Z,101836.50
2022-07-30T13:22:00.450Z,101840.31
2022-07-30T13:24:28.411Z,101831.63
2022-07-30T13:26:56.274Z,101835.47
2022-07-30T13:29:24.177Z,101827.44
2022-07-30T13:31:53.457Z,101829.13
2022-07-30T13:34:21.628Z,101821.09
2022-07-30T13:36:49.597Z,101817.59
2022-07-30T13:39:17.520Z,101818.28
2022-07-30T13:41:45.697Z,101817.81
2022-07-30T13:44:13.647Z,101817.63
2022-07-30T13:46:41.861Z,101810.50
2022-07-30T13:49:11.386Z,101806.84
2022-07-30T13:51:39.594Z,101809.03
2022-07-30T13:54:07.885Z,101807.22
2022-07-30T13:56:40.725Z,101802.56
2022-07-30T13:59:09.168Z,101798.44
2022-07-30T14:01:38.144Z,101798.75
2022-07-30T14:04:06.921Z,101794.63
2022-07-30T14:06:36.305Z,101784.94
2022-07-30T14:09:04.868Z,101792.66
2022-07-30T14:11:33.215Z,101789.47
2022-07-30T14:14:01.255Z,101785.63
2022-07-30T14:16:44.654Z,101779.63
2022-07-30T14:19:23.445Z,101773.97
2022-07-30T14:21:54.266Z,101768.97
2022-07-30T14:24:22.695Z,101767.63
2022-07-30T14:26:57.430Z,101762.59
2022-07-30T14:29:27.224Z,101763.75
2022-07-30T14:31:55.391Z,101754.22
2022-07-30T14:34:23.398Z,101757.06
2022-07-30T14:36:51.896Z,101752.97
2022-07-30T14:39:21.613Z,101758.31
2022-07-30T14:41:52.392Z,101752.47
2022-07-30T14:44:24.094Z,101751.59
2022-07-30T14:46:52.960Z,101746.50
2022-07-30T14:49:21.563Z,101749.97
2022-07-30T14:51:51.042Z,101744.94
2022-07-30T14:54:19.340Z,101743.69
2022-07-30T14:56:48.644Z,101743.06
2022-07-30T14:59:17.096Z,101738.06
2022-07-30T15:01:45.149Z,101742.59
2022-07-30T15:04:13.110Z,101744.47
2022-07-30T15:06:41.878Z,101741.81
2022-07-30T15:09:10.506Z,101743.50
2022-07-30T15:12:04.186Z,101735.31
2022-07-30T15:14:28.471Z,101734.69
2022-07-30T15:16:59.530Z,101739.69
2022-07-30T15:19:31.334Z,101729.50
2022-07-30T15:22:02.223Z,101731.69
2022-07-30T15:24:31.244Z,101729.72
2022-07-30T15:26:59.250Z,101730.72
2022-07-30T15:29:30.235Z,101727.53
2022-07-30T15:32:00.200Z,101722.00
2022-07-30T15:34:34.007Z,101722.13
2022-07-30T15:37:02.718Z,101720.44
2022-07-30T15:39:33.149Z,101721.41
2022-07-30T15:42:01.838Z,101718.75
2022-07-30T15:44:31.517Z,101712.69
2022-07-30T15:46:59.532Z,101718.34
2022-07-30T15:49:28.081Z,101711.47
2022-07-30T15:51:56.089Z,101716.31
2022-07-30T15:54:25.387Z,101712.81
2022-07-30T15:57:01.104Z,101707.06
2022-07-30T15:59:31.320Z,101711.38
2022-07-30T16:01:59.973Z,101706.00
2022-07-30T16:04:31.755Z,101698.66
2022-07-30T16:07:00.726Z,101697.69
2022-07-30T16:09:28.752Z,101707.13
2022-07-30T16:11:56.713Z,101707.47
2022-07-30T16:14:24.787Z,101704.97
2022-07-30T16:16:54.032Z,101713.16
2022-07-30T16:19:22.038Z,101703.81
2022-07-30T16:21:50.106Z,101710.16
2022-07-30T16:24:18.055Z,101708.38
2022-07-30T16:26:46.035Z,101703.53
2022-07-30T16:29:14.233Z,101709.22
2022-07-30T16:31:42.297Z,101719.25
2022-07-30T16:34:11.666Z,101711.22
2022-07-30T16:36:39.586Z,101712.06
2022-07-30T16:39:07.578Z,101705.22
2022-07-30T16:41:35.579Z,101710.91
2022-07-30T16:44:03.556Z,101707.59
2022-07-30T16:46:31.500Z,101703.56
2022-07-30T16:48:59.460Z,101703.25
2022-07-30T16:51:28.868Z,101704.09
2022-07-30T16:53:56.809Z,101703.44
2022-07-30T16:56:24.746Z,101704.78
2022-07-30T16:58:52.720Z,101696.09
2022-07-30T17:01:20.830Z,101693.59
2022-07-30T17:03:48.843Z,101698.28
2022-07-30T17:06:16.772Z,101698.97
2022-07-30T17:08:46.101Z,101696.78
2022-07-30T17:11:46.512Z,101696.59
2022-07-30T17:14:05.228Z,101690.44
2022-07-30T17:16:33.150Z,101693.44
2022-07-30T17:19:01.022Z,101688.94
2022-07-30T17:21:38.045Z,101688.75
2022-07-30T17:24:11.410Z,101682.94
2022-07-30T17:26:42.953Z,101689.25
2022-07-30T17:29:14.162Z,101689.09
2022-07-30T17:31:44.189Z,101685.59
2022-07-30T17:34:14.230Z,101683.75
2022-07-30T17:36:52.065Z,101680.44
2022-07-30T17:40:28.582Z,101680.75
2022-07-30T17:42:11.447Z,101679.91
2022-07-30T17:44:40.396Z,101683.25
2022-07-30T17:47:14.374Z,101677.75
2022-07-30T17:49:42.750Z,101675.75
2022-07-30T17:52:10.739Z,101688.03
2022-07-30T17:54:40.052Z,101680.69
2022-07-30T17:57:08.027Z,101688.97
2022-07-30T17:59:36.123Z,101694.97
2022-07-30T18:02:05.366Z,101689.78
2022-07-30T18:04:34.894Z,101688.25
2022-07-30T18:07:03.349Z,101692.41
2022-07-30T18:09:39.594Z,101695.06
2022-07-30T18:12:09.800Z,101696.53
2022-07-30T18:14:38.717Z,101698.34
2022-07-30T18:17:10.095Z,101697.13
2022-07-30T18:19:42.281Z,101699.88
2022-07-30T18:22:10.463Z,101698.53
2022-07-30T18:24:43.970Z,101704.19
2022-07-30T18:27:13.840Z,101705.63
2022-07-30T18:29:42.203Z,101700.97
2022-07-30T18:32:10.167Z,101698.63
2022-07-30T18:34:38.094Z,101697.41
2022-07-30T18:37:06.035Z,101700.91
2022-07-30T18:39:33.986Z,101699.88
2022-07-30T18:42:02.417Z,101702.63
2022-07-30T18:44:32.205Z,101698.94
2022-07-30T18:47:00.460Z,101698.59
2022-07-30T18:49:37.417Z,101690.22
2022-07-30T18:52:07.439Z,101697.53
2022-07-30T18:54:35.952Z,101696.63
2022-07-30T18:57:04.424Z,101698.22
2022-07-30T18:59:33.709Z,101695.31
2022-07-30T19:02:02.087Z,101692.97
2022-07-30T19:04:31.356Z,101692.31
2022-07-30T19:06:59.387Z,101699.75
2022-07-30T19:09:27.769Z,101694.19
2022-07-30T19:11:55.670Z,101695.97
2022-07-30T19:14:23.603Z,101697.88
2022-07-30T19:16:53.093Z,101697.78
2022-07-30T19:19:20.993Z,101702.28
2022-07-30T19:21:49.111Z,101696.84
2022-07-30T19:24:17.011Z,101696.16
2022-07-30T19:26:44.935Z,101701.13
2022-07-30T19:29:12.879Z,101700.31
2022-07-30T19:31:41.649Z,101700.63
2022-07-30T19:34:11.831Z,101702.72
2022-07-30T19:36:39.903Z,101707.78
2022-07-30T19:39:10.190Z,101705.34
2022-07-30T19:41:41.472Z,101711.47
2022-07-30T19:44:09.867Z,101706.59
2022-07-30T19:46:38.703Z,101715.31
2022-07-30T19:49:11.044Z,101708.91
2022-07-30T19:52:09.925Z,101712.00
2022-07-30T19:54:29.311Z,101713.44
2022-07-30T19:56:57.180Z,101721.84
2022-07-30T19:59:43.689Z,101715.16
2022-07-30T20:02:15.763Z,101708.72
2022-07-30T20:04:45.079Z,101725.81
2022-07-30T20:07:13.660Z,101718.13
2022-07-30T20:09:44.704Z,101714.09
2022-07-30T20:12:16.496Z,101717.03
2022-07-30T20:14:45.151Z,101723.72
2022-07-30T20:17:13.189Z,101722.06
2022-07-30T20:19:47.854Z,101724.72
2022-07-30T20:22:18.036Z,101728.66
2022-07-30T20:24:48.552Z,101726.94
2022-07-30T20:27:35.437Z,101722.59
2022-07-30T20:30:05.478Z,101727.34
2022-07-30T20:32:33.747Z,101722.03
2022-07-30T20:35:01.720Z,101730.72
2022-07-30T20:37:31.221Z,101722.88
2022-07-30T20:39:59.210Z,101731.84
2022-07-30T20:42:28.359Z,101723.03
2022-07-30T20:44:58.337Z,101726.81
2022-07-30T20:47:37.411Z,101715.50
2022-07-30T20:50:09.831Z,101714.78
2022-07-30T20:52:40.523Z,101717.88
2022-07-30T20:55:09.594Z,101719.81
2022-07-30T21:00:29.167Z,101717.63
2022-07-30T21:02:57.072Z,101715.78
2022-07-30T21:05:26.887Z,101710.47
2022-07-30T21:07:56.591Z,101709.38
2022-07-30T21:10:26.060Z,101716.91
2022-07-30T21:13:02.970Z,101716.63
2022-07-30T21:15:32.839Z,101710.50
2022-07-30T21:18:01.557Z,101710.63
2022-07-30T21:20:30.544Z,101705.59
2022-07-30T21:23:06.570Z,101712.16
2022-07-30T21:26:00.874Z,101709.66
2022-07-30T21:28:28.163Z,101709.78
2022-07-30T21:30:57.240Z,101712.56
2022-07-30T21:33:31.345Z,101711.91
2022-07-30T21:35:59.759Z,101702.38
2022-07-30T21:38:30.452Z,101707.97
2022-07-30T21:40:58.696Z,101711.91
2022-07-30T21:43:29.832Z,101706.16
2022-07-30T21:45:58.635Z,101710.66
2022-07-30T21:48:26.684Z,101702.97
2022-07-30T21:50:55.344Z,101709.09
2022-07-30T21:53:29.542Z,101708.41
2022-07-30T21:56:13.346Z,101699.88
2022-07-30T21:58:42.160Z,101708.97
2022-07-30T22:01:17.446Z,101703.66
2022-07-30T22:04:03.680Z,101711.31
2022-07-30T22:06:35.307Z,101714.38
2022-07-30T22:09:06.297Z,101706.28
2022-07-30T22:11:48.222Z,101715.25
2022-07-30T22:14:16.132Z,101711.06
2022-07-30T22:16:46.052Z,101709.34
2022-07-30T22:19:14.699Z,101711.59
2022-07-30T22:21:46.678Z,101717.47
2022-07-30T22:24:26.245Z,101713.13
2022-07-30T22:27:01.674Z,101711.59
2022-07-30T22:29:42.512Z,101707.41
2022-07-30T22:32:10.979Z,101712.84
2022-07-30T22:34:39.393Z,101716.19
2022-07-30T22:37:12.676Z,101710.19
2022-07-30T22:39:51.944Z,101711.31
2022-07-30T22:42:23.975Z,101718.66
2022-07-30T22:44:53.090Z,101719.50
2022-07-30T22:47:50.693Z,101718.94
2022-07-30T22:50:11.753Z,101718.25
2022-07-30T22:52:44.360Z,101716.13
2022-07-30T22:55:23.288Z,101714.34
2022-07-30T22:57:53.800Z,101719.78
2022-07-30T23:00:27.162Z,101718.53
2022-07-30T23:02:57.075Z,101720.91
2022-07-30T23:05:25.572Z,101720.63
2022-07-30T23:07:54.294Z,101721.31
2022-07-30T23:10:25.639Z,101719.66
2022-07-30T23:12:26.542Z,101717.31
2022-07-30T23:12:57.187Z,101722.16
2022-07-30T23:15:25.263Z,101721.44
2022-07-30T23:17:53.278Z,101719.50
2022-07-30T23:20:22.867Z,101722.44
2022-07-30T23:22:51.120Z,101716.00
2022-07-30T23:25:19.112Z,101724.69
2022-07-30T23:27:48.090Z,101723.00
2022-07-30T23:30:17.376Z,101715.06
2022-07-30T23:32:45.266Z,101719.38
2022-07-30T23:35:13.161Z,101717.84
2022-07-30T23:37:48.877Z,101715.31
2022-07-30T23:40:18.510Z,101715.72
2022-07-30T23:42:46.858Z,101715.16
2022-07-30T23:45:14.754Z,101714.44
2022-07-30T23:48:00.693Z,101710.13
2022-07-30T23:50:30.502Z,101710.53
2022-07-30T23:52:58.579Z,101713.44
2022-07-30T23:55:27.162Z,101707.59
2022-07-30T23:57:55.321Z,101708.97
